sensor_id;sensor_type;location;lat;lon;timestamp;temperature;humidity
65231;DHT22;51813;40.666;16.602;2023-07-09T00:01:17;25.50;48.90
65231;DHT22;51813;40.666;16.602;2023-07-09T00:03:47;25.50;50.60
65231;DHT22;51813;40.666;16.602;2023-07-09T00:06:18;25.50;50.30
65231;DHT22;51813;40.666;16.602;2023-07-09T00:08:45;25.50;48.90
65231;DHT22;51813;40.666;16.602;2023-07-09T00:11:14;25.50;49.20
65231;DHT22;51813;40.666;16.602;2023-07-09T00:13:39;25.50;50.60
65231;DHT22;51813;40.666;16.602;2023-07-09T00:16:15;25.40;50.00
65231;DHT22;51813;40.666;16.602;2023-07-09T00:18:42;25.50;49.70
65231;DHT22;51813;40.666;16.602;2023-07-09T00:21:08;25.40;48.90
65231;DHT22;51813;40.666;16.602;2023-07-09T00:23:34;25.40;49.20
65231;DHT22;51813;40.666;16.602;2023-07-09T00:25:59;25.30;49.40
65231;DHT22;51813;40.666;16.602;2023-07-09T00:28:28;25.40;49.90
65231;DHT22;51813;40.666;16.602;2023-07-09T00:30:54;25.40;49.10
65231;DHT22;51813;40.666;16.602;2023-07-09T00:33:19;25.50;51.10
65231;DHT22;51813;40.666;16.602;2023-07-09T00:35:46;25.50;50.60
65231;DHT22;51813;40.666;16.602;2023-07-09T00:38:24;25.60;50.40
65231;DHT22;51813;40.666;16.602;2023-07-09T00:43:29;25.60;48.90
65231;DHT22;51813;40.666;16.602;2023-07-09T00:46:15;25.60;49.70
65231;DHT22;51813;40.666;16.602;2023-07-09T00:48:42;25.60;50.50
65231;DHT22;51813;40.666;16.602;2023-07-09T00:51:14;25.60;49.70
65231;DHT22;51813;40.666;16.602;2023-07-09T00:53:41;25.60;50.40
65231;DHT22;51813;40.666;16.602;2023-07-09T00:56:14;25.70;50.90
65231;DHT22;51813;40.666;16.602;2023-07-09T00:58:43;25.70;50.70
65231;DHT22;51813;40.666;16.602;2023-07-09T01:01:14;25.70;50.60
65231;DHT22;51813;40.666;16.602;2023-07-09T01:03:49;25.70;49.60
65231;DHT22;51813;40.666;16.602;2023-07-09T01:06:23;25.60;50.30
65231;DHT22;51813;40.666;16.602;2023-07-09T01:08:55;25.60;50.40
65231;DHT22;51813;40.666;16.602;2023-07-09T01:11:22;25.60;50.60
65231;DHT22;51813;40.666;16.602;2023-07-09T01:14:00;25.60;49.60
65231;DHT22;51813;40.666;16.602;2023-07-09T01:16:41;25.50;48.90
65231;DHT22;51813;40.666;16.602;2023-07-09T01:19:08;25.40;50.90
65231;DHT22;51813;40.666;16.602;2023-07-09T01:21:34;25.50;50.00
65231;DHT22;51813;40.666;16.602;2023-07-09T01:24:15;25.50;50.70
65231;DHT22;51813;40.666;16.602;2023-07-09T01:26:52;25.50;49.70
65231;DHT22;51813;40.666;16.602;2023-07-09T01:29:17;25.40;49.50
65231;DHT22;51813;40.666;16.602;2023-07-09T01:31:43;25.40;49.70
65231;DHT22;51813;40.666;16.602;2023-07-09T01:34:09;25.50;51.30
65231;DHT22;51813;40.666;16.602;2023-07-09T01:36:34;25.50;48.90
65231;DHT22;51813;40.666;16.602;2023-07-09T01:39:00;25.40;50.20
65231;DHT22;51813;40.666;16.602;2023-07-09T01:41:26;25.40;49.40
65231;DHT22;51813;40.666;16.602;2023-07-09T01:43:52;25.40;51.40
65231;DHT22;51813;40.666;16.602;2023-07-09T01:46:18;25.50;50.60
65231;DHT22;51813;40.666;16.602;2023-07-09T01:48:44;25.50;51.20
65231;DHT22;51813;40.666;16.602;2023-07-09T01:51:12;25.50;50.20
65231;DHT22;51813;40.666;16.602;2023-07-09T01:53:40;25.50;51.10
65231;DHT22;51813;40.666;16.602;2023-07-09T01:56:05;25.50;51.90
65231;DHT22;51813;40.666;16.602;2023-07-09T01:58:34;25.50;51.30
65231;DHT22;51813;40.666;16.602;2023-07-09T02:01:00;25.40;51.20
65231;DHT22;51813;40.666;16.602;2023-07-09T02:03:26;25.40;51.60
65231;DHT22;51813;40.666;16.602;2023-07-09T02:05:55;25.50;51.80
65231;DHT22;51813;40.666;16.602;2023-07-09T02:08:20;25.40;51.20
65231;DHT22;51813;40.666;16.602;2023-07-09T02:10:50;25.40;51.50
65231;DHT22;51813;40.666;16.602;2023-07-09T02:13:16;25.40;51.60
65231;DHT22;51813;40.666;16.602;2023-07-09T02:15:45;25.50;52.00
65231;DHT22;51813;40.666;16.602;2023-07-09T02:18:11;25.50;52.20
65231;DHT22;51813;40.666;16.602;2023-07-09T02:20:37;25.50;52.20
65231;DHT22;51813;40.666;16.602;2023-07-09T02:23:03;25.50;52.10
65231;DHT22;51813;40.666;16.602;2023-07-09T02:25:29;25.20;51.90
65231;DHT22;51813;40.666;16.602;2023-07-09T02:27:55;25.30;52.60
65231;DHT22;51813;40.666;16.602;2023-07-09T02:30:20;25.40;52.40
65231;DHT22;51813;40.666;16.602;2023-07-09T02:32:46;25.40;53.00
65231;DHT22;51813;40.666;16.602;2023-07-09T02:35:12;25.40;52.50
65231;DHT22;51813;40.666;16.602;2023-07-09T02:37:38;25.40;52.00
65231;DHT22;51813;40.666;16.602;2023-07-09T02:40:05;25.30;51.60
65231;DHT22;51813;40.666;16.602;2023-07-09T02:42:31;25.30;51.60
65231;DHT22;51813;40.666;16.602;2023-07-09T02:44:56;25.20;51.70
65231;DHT22;51813;40.666;16.602;2023-07-09T02:47:22;25.10;51.90
65231;DHT22;51813;40.666;16.602;2023-07-09T02:49:48;25.10;52.10
65231;DHT22;51813;40.666;16.602;2023-07-09T02:52:13;25.10;53.30
65231;DHT22;51813;40.666;16.602;2023-07-09T02:54:39;25.20;52.50
65231;DHT22;51813;40.666;16.602;2023-07-09T02:57:06;25.10;52.10
65231;DHT22;51813;40.666;16.602;2023-07-09T02:59:32;25.10;52.20
65231;DHT22;51813;40.666;16.602;2023-07-09T03:01:59;25.20;52.50
65231;DHT22;51813;40.666;16.602;2023-07-09T03:04:25;25.10;53.10
65231;DHT22;51813;40.666;16.602;2023-07-09T03:06:51;25.20;53.20
65231;DHT22;51813;40.666;16.602;2023-07-09T03:09:18;25.30;52.90
65231;DHT22;51813;40.666;16.602;2023-07-09T03:11:43;25.30;53.50
65231;DHT22;51813;40.666;16.602;2023-07-09T03:14:09;25.30;53.10
65231;DHT22;51813;40.666;16.602;2023-07-09T03:16:35;25.40;52.80
65231;DHT22;51813;40.666;16.602;2023-07-09T03:19:01;25.40;52.80
65231;DHT22;51813;40.666;16.602;2023-07-09T03:21:28;25.40;52.20
65231;DHT22;51813;40.666;16.602;2023-07-09T03:23:55;25.40;52.60
65231;DHT22;51813;40.666;16.602;2023-07-09T03:26:21;25.40;51.70
65231;DHT22;51813;40.666;16.602;2023-07-09T03:28:47;25.30;52.90
65231;DHT22;51813;40.666;16.602;2023-07-09T03:31:13;25.40;53.00
65231;DHT22;51813;40.666;16.602;2023-07-09T03:33:39;25.40;52.70
65231;DHT22;51813;40.666;16.602;2023-07-09T03:36:05;25.40;52.20
65231;DHT22;51813;40.666;16.602;2023-07-09T03:38:31;25.30;52.40
65231;DHT22;51813;40.666;16.602;2023-07-09T03:40:58;25.40;52.10
65231;DHT22;51813;40.666;16.602;2023-07-09T03:43:24;25.40;52.20
65231;DHT22;51813;40.666;16.602;2023-07-09T03:45:50;25.40;52.10
65231;DHT22;51813;40.666;16.602;2023-07-09T03:48:18;25.40;52.40
65231;DHT22;51813;40.666;16.602;2023-07-09T03:50:46;25.40;52.90
65231;DHT22;51813;40.666;16.602;2023-07-09T03:53:13;25.40;50.10
65231;DHT22;51813;40.666;16.602;2023-07-09T03:55:39;25.30;51.70
65231;DHT22;51813;40.666;16.602;2023-07-09T03:58:05;25.30;52.40
65231;DHT22;51813;40.666;16.602;2023-07-09T04:00:32;25.40;53.10
65231;DHT22;51813;40.666;16.602;2023-07-09T04:02:58;25.40;51.90
65231;DHT22;51813;40.666;16.602;2023-07-09T04:05:25;25.40;50.80
65231;DHT22;51813;40.666;16.602;2023-07-09T04:07:51;25.40;51.70
65231;DHT22;51813;40.666;16.602;2023-07-09T04:10:17;25.40;51.60
65231;DHT22;51813;40.666;16.602;2023-07-09T04:12:43;25.40;52.20
65231;DHT22;51813;40.666;16.602;2023-07-09T04:15:09;25.40;49.60
65231;DHT22;51813;40.666;16.602;2023-07-09T04:17:35;25.20;49.50
65231;DHT22;51813;40.666;16.602;2023-07-09T04:20:02;25.30;52.50
65231;DHT22;51813;40.666;16.602;2023-07-09T04:22:31;25.30;52.10
65231;DHT22;51813;40.666;16.602;2023-07-09T04:24:57;25.30;51.50
65231;DHT22;51813;40.666;16.602;2023-07-09T04:27:23;25.40;51.60
65231;DHT22;51813;40.666;16.602;2023-07-09T04:29:52;25.30;48.80
65231;DHT22;51813;40.666;16.602;2023-07-09T04:32:19;25.30;49.50
65231;DHT22;51813;40.666;16.602;2023-07-09T04:34:45;25.20;51.40
65231;DHT22;51813;40.666;16.602;2023-07-09T04:37:11;25.20;51.30
65231;DHT22;51813;40.666;16.602;2023-07-09T04:39:38;25.30;52.40
65231;DHT22;51813;40.666;16.602;2023-07-09T04:42:05;25.30;48.50
65231;DHT22;51813;40.666;16.602;2023-07-09T04:44:31;25.20;51.50
65231;DHT22;51813;40.666;16.602;2023-07-09T04:46:56;25.30;51.10
65231;DHT22;51813;40.666;16.602;2023-07-09T04:49:22;25.40;50.00
65231;DHT22;51813;40.666;16.602;2023-07-09T04:51:48;25.30;49.70
65231;DHT22;51813;40.666;16.602;2023-07-09T04:54:14;25.40;50.60
65231;DHT22;51813;40.666;16.602;2023-07-09T04:56:41;25.30;49.80
65231;DHT22;51813;40.666;16.602;2023-07-09T04:59:10;25.30;51.70
65231;DHT22;51813;40.666;16.602;2023-07-09T05:01:36;25.30;51.00
65231;DHT22;51813;40.666;16.602;2023-07-09T05:04:02;25.30;51.40
65231;DHT22;51813;40.666;16.602;2023-07-09T05:06:28;25.30;50.50
65231;DHT22;51813;40.666;16.602;2023-07-09T05:08:54;25.40;51.00
65231;DHT22;51813;40.666;16.602;2023-07-09T05:11:19;25.30;48.70
65231;DHT22;51813;40.666;16.602;2023-07-09T05:13:45;25.30;49.80
65231;DHT22;51813;40.666;16.602;2023-07-09T05:16:11;25.30;50.40
65231;DHT22;51813;40.666;16.602;2023-07-09T05:18:37;25.30;50.10
65231;DHT22;51813;40.666;16.602;2023-07-09T05:21:03;25.30;50.40
65231;DHT22;51813;40.666;16.602;2023-07-09T05:23:29;25.30;51.40
65231;DHT22;51813;40.666;16.602;2023-07-09T05:25:59;25.30;48.40
65231;DHT22;51813;40.666;16.602;2023-07-09T05:28:25;25.30;50.60
65231;DHT22;51813;40.666;16.602;2023-07-09T05:30:51;25.20;49.90
65231;DHT22;51813;40.666;16.602;2023-07-09T05:33:18;25.30;50.20
65231;DHT22;51813;40.666;16.602;2023-07-09T05:35:44;25.30;48.50
65231;DHT22;51813;40.666;16.602;2023-07-09T05:38:11;25.20;49.70
65231;DHT22;51813;40.666;16.602;2023-07-09T05:40:36;25.20;49.40
65231;DHT22;51813;40.666;16.602;2023-07-09T05:43:02;25.20;50.00
65231;DHT22;51813;40.666;16.602;2023-07-09T05:45:28;25.20;50.80
65231;DHT22;51813;40.666;16.602;2023-07-09T05:47:54;25.20;50.20
65231;DHT22;51813;40.666;16.602;2023-07-09T05:50:19;25.30;50.50
65231;DHT22;51813;40.666;16.602;2023-07-09T05:52:45;25.30;50.10
65231;DHT22;51813;40.666;16.602;2023-07-09T05:55:11;25.20;48.00
65231;DHT22;51813;40.666;16.602;2023-07-09T05:57:38;25.20;49.70
65231;DHT22;51813;40.666;16.602;2023-07-09T06:00:04;25.30;49.60
65231;DHT22;51813;40.666;16.602;2023-07-09T06:02:30;25.40;49.20
65231;DHT22;51813;40.666;16.602;2023-07-09T06:04:56;25.30;47.90
65231;DHT22;51813;40.666;16.602;2023-07-09T06:07:23;25.30;49.50
65231;DHT22;51813;40.666;16.602;2023-07-09T06:09:49;25.30;48.20
65231;DHT22;51813;40.666;16.602;2023-07-09T06:12:15;25.30;50.10
65231;DHT22;51813;40.666;16.602;2023-07-09T06:14:41;25.30;50.20
65231;DHT22;51813;40.666;16.602;2023-07-09T06:17:07;25.30;50.00
65231;DHT22;51813;40.666;16.602;2023-07-09T06:19:32;25.40;48.50
65231;DHT22;51813;40.666;16.602;2023-07-09T06:21:58;25.30;50.10
65231;DHT22;51813;40.666;16.602;2023-07-09T06:24:24;25.30;49.30
65231;DHT22;51813;40.666;16.602;2023-07-09T06:26:50;25.30;49.30
65231;DHT22;51813;40.666;16.602;2023-07-09T06:29:16;25.40;49.10
65231;DHT22;51813;40.666;16.602;2023-07-09T06:31:41;25.40;50.30
65231;DHT22;51813;40.666;16.602;2023-07-09T06:34:08;25.30;49.30
65231;DHT22;51813;40.666;16.602;2023-07-09T06:36:35;25.30;48.50
65231;DHT22;51813;40.666;16.602;2023-07-09T06:39:01;25.30;49.70
65231;DHT22;51813;40.666;16.602;2023-07-09T06:41:28;25.40;50.10
65231;DHT22;51813;40.666;16.602;2023-07-09T06:43:53;25.40;49.00
65231;DHT22;51813;40.666;16.602;2023-07-09T06:46:20;25.30;48.50
65231;DHT22;51813;40.666;16.602;2023-07-09T06:48:46;25.30;48.60
65231;DHT22;51813;40.666;16.602;2023-07-09T06:51:12;25.30;45.90
65231;DHT22;51813;40.666;16.602;2023-07-09T06:53:37;25.40;49.40
65231;DHT22;51813;40.666;16.602;2023-07-09T06:56:05;25.30;48.50
65231;DHT22;51813;40.666;16.602;2023-07-09T06:58:32;25.40;48.00
65231;DHT22;51813;40.666;16.602;2023-07-09T07:01:00;25.30;45.70
65231;DHT22;51813;40.666;16.602;2023-07-09T07:03:29;25.30;46.00
65231;DHT22;51813;40.666;16.602;2023-07-09T07:05:55;25.30;49.10
65231;DHT22;51813;40.666;16.602;2023-07-09T07:08:22;25.30;47.80
65231;DHT22;51813;40.666;16.602;2023-07-09T07:10:49;25.30;47.60
65231;DHT22;51813;40.666;16.602;2023-07-09T07:13:16;25.30;47.80
65231;DHT22;51813;40.666;16.602;2023-07-09T07:15:48;25.30;44.70
65231;DHT22;51813;40.666;16.602;2023-07-09T07:18:15;25.30;47.50
65231;DHT22;51813;40.666;16.602;2023-07-09T07:20:40;25.30;46.60
65231;DHT22;51813;40.666;16.602;2023-07-09T07:23:06;25.40;47.80
65231;DHT22;51813;40.666;16.602;2023-07-09T07:25:32;25.30;48.00
65231;DHT22;51813;40.666;16.602;2023-07-09T07:27:58;25.30;46.90
65231;DHT22;51813;40.666;16.602;2023-07-09T07:30:24;25.30;45.00
65231;DHT22;51813;40.666;16.602;2023-07-09T07:32:50;25.30;44.20
65231;DHT22;51813;40.666;16.602;2023-07-09T07:35:16;25.30;46.50
65231;DHT22;51813;40.666;16.602;2023-07-09T07:37:42;25.30;47.10
65231;DHT22;51813;40.666;16.602;2023-07-09T07:40:09;25.30;40.90
65231;DHT22;51813;40.666;16.602;2023-07-09T07:42:36;25.30;45.40
65231;DHT22;51813;40.666;16.602;2023-07-09T07:45:03;25.30;45.40
65231;DHT22;51813;40.666;16.602;2023-07-09T07:47:29;25.40;45.60
65231;DHT22;51813;40.666;16.602;2023-07-09T07:49:55;25.50;46.00
65231;DHT22;51813;40.666;16.602;2023-07-09T07:52:21;25.40;44.90
65231;DHT22;51813;40.666;16.602;2023-07-09T07:54:47;25.40;45.20
65231;DHT22;51813;40.666;16.602;2023-07-09T07:57:12;25.40;44.10
65231;DHT22;51813;40.666;16.602;2023-07-09T07:59:38;25.40;44.20
65231;DHT22;51813;40.666;16.602;2023-07-09T08:02:06;25.40;43.40
65231;DHT22;51813;40.666;16.602;2023-07-09T08:04:32;25.40;44.50
65231;DHT22;51813;40.666;16.602;2023-07-09T08:06:58;25.50;44.00
65231;DHT22;51813;40.666;16.602;2023-07-09T08:09:24;25.40;44.20
65231;DHT22;51813;40.666;16.602;2023-07-09T08:11:50;25.40;42.90
65231;DHT22;51813;40.666;16.602;2023-07-09T08:14:17;25.40;46.20
65231;DHT22;51813;40.666;16.602;2023-07-09T08:16:42;25.40;45.70
65231;DHT22;51813;40.666;16.602;2023-07-09T08:19:08;25.40;43.70
65231;DHT22;51813;40.666;16.602;2023-07-09T08:21:34;25.40;43.50
65231;DHT22;51813;40.666;16.602;2023-07-09T08:23:59;25.40;42.80
65231;DHT22;51813;40.666;16.602;2023-07-09T08:26:25;25.40;42.20
65231;DHT22;51813;40.666;16.602;2023-07-09T08:28:51;25.40;43.30
65231;DHT22;51813;40.666;16.602;2023-07-09T08:31:17;25.50;41.60
65231;DHT22;51813;40.666;16.602;2023-07-09T08:33:43;25.40;44.70
65231;DHT22;51813;40.666;16.602;2023-07-09T08:36:08;25.40;44.20
65231;DHT22;51813;40.666;16.602;2023-07-09T08:38:34;25.40;43.40
65231;DHT22;51813;40.666;16.602;2023-07-09T08:41:08;25.40;43.80
65231;DHT22;51813;40.666;16.602;2023-07-09T08:46:37;25.40;40.10
65231;DHT22;51813;40.666;16.602;2023-07-09T08:49:24;25.50;42.70
65231;DHT22;51813;40.666;16.602;2023-07-09T08:51:56;25.50;41.60
65231;DHT22;51813;40.666;16.602;2023-07-09T08:54:28;25.50;42.20
65231;DHT22;51813;40.666;16.602;2023-07-09T08:57:00;25.50;41.80
65231;DHT22;51813;40.666;16.602;2023-07-09T08:59:30;25.50;41.90
65231;DHT22;51813;40.666;16.602;2023-07-09T09:01:58;25.50;42.30
65231;DHT22;51813;40.666;16.602;2023-07-09T09:04:29;25.50;41.50
65231;DHT22;51813;40.666;16.602;2023-07-09T09:09:58;25.50;41.90
65231;DHT22;51813;40.666;16.602;2023-07-09T09:12:37;25.50;43.00
65231;DHT22;51813;40.666;16.602;2023-07-09T09:15:16;25.50;42.00
65231;DHT22;51813;40.666;16.602;2023-07-09T09:17:43;25.50;42.90
65231;DHT22;51813;40.666;16.602;2023-07-09T09:20:17;25.50;42.10
65231;DHT22;51813;40.666;16.602;2023-07-09T09:22:57;25.50;43.30
65231;DHT22;51813;40.666;16.602;2023-07-09T09:25:32;25.50;42.40
65231;DHT22;51813;40.666;16.602;2023-07-09T09:27:59;25.50;41.60
65231;DHT22;51813;40.666;16.602;2023-07-09T09:30:29;25.50;41.90
65231;DHT22;51813;40.666;16.602;2023-07-09T09:32:57;25.50;42.20
65231;DHT22;51813;40.666;16.602;2023-07-09T09:35:35;25.60;44.00
65231;DHT22;51813;40.666;16.602;2023-07-09T09:38:09;25.60;42.20
65231;DHT22;51813;40.666;16.602;2023-07-09T09:40:35;25.50;42.20
65231;DHT22;51813;40.666;16.602;2023-07-09T09:43:02;25.50;45.60
65231;DHT22;51813;40.666;16.602;2023-07-09T09:45:37;25.50;44.90
65231;DHT22;51813;40.666;16.602;2023-07-09T09:50:40;25.50;42.90
65231;DHT22;51813;40.666;16.602;2023-07-09T09:53:07;25.50;43.60
65231;DHT22;51813;40.666;16.602;2023-07-09T09:55:33;25.50;43.10
65231;DHT22;51813;40.666;16.602;2023-07-09T09:58:00;25.50;43.90
65231;DHT22;51813;40.666;16.602;2023-07-09T10:00:29;25.50;43.40
65231;DHT22;51813;40.666;16.602;2023-07-09T10:03:02;25.50;43.50
65231;DHT22;51813;40.666;16.602;2023-07-09T10:05:34;25.50;43.40
65231;DHT22;51813;40.666;16.602;2023-07-09T10:08:09;25.60;44.30
65231;DHT22;51813;40.666;16.602;2023-07-09T10:10:39;25.60;44.30
65231;DHT22;51813;40.666;16.602;2023-07-09T10:13:34;25.60;44.00
65231;DHT22;51813;40.666;16.602;2023-07-09T10:16:09;25.50;43.80
65231;DHT22;51813;40.666;16.602;2023-07-09T10:18:44;25.50;42.50
65231;DHT22;51813;40.666;16.602;2023-07-09T10:21:37;25.50;45.20
65231;DHT22;51813;40.666;16.602;2023-07-09T10:27:22;25.60;43.40
65231;DHT22;51813;40.666;16.602;2023-07-09T10:38:49;25.60;43.50
65231;DHT22;51813;40.666;16.602;2023-07-09T10:41:18;25.50;43.80
65231;DHT22;51813;40.666;16.602;2023-07-09T10:43:54;25.50;45.10
65231;DHT22;51813;40.666;16.602;2023-07-09T10:46:25;25.50;45.10
65231;DHT22;51813;40.666;16.602;2023-07-09T10:48:53;25.50;44.80
65231;DHT22;51813;40.666;16.602;2023-07-09T10:57:04;25.60;46.30
65231;DHT22;51813;40.666;16.602;2023-07-09T10:59:37;25.60;45.70
65231;DHT22;51813;40.666;16.602;2023-07-09T11:02:44;25.50;44.90
65231;DHT22;51813;40.666;16.602;2023-07-09T11:05:10;25.50;45.60
65231;DHT22;51813;40.666;16.602;2023-07-09T11:07:47;25.60;45.40
65231;DHT22;51813;40.666;16.602;2023-07-09T11:10:34;25.60;45.10
65231;DHT22;51813;40.666;16.602;2023-07-09T11:13:05;25.60;44.80
65231;DHT22;51813;40.666;16.602;2023-07-09T11:15:37;25.60;44.10
65231;DHT22;51813;40.666;16.602;2023-07-09T11:18:06;25.60;44.80
65231;DHT22;51813;40.666;16.602;2023-07-09T11:20:35;25.60;45.90
65231;DHT22;51813;40.666;16.602;2023-07-09T11:23:07;25.60;45.50
65231;DHT22;51813;40.666;16.602;2023-07-09T11:25:43;25.60;46.00
65231;DHT22;51813;40.666;16.602;2023-07-09T11:28:09;25.60;47.00
65231;DHT22;51813;40.666;16.602;2023-07-09T11:30:52;25.60;45.70
65231;DHT22;51813;40.666;16.602;2023-07-09T11:33:26;25.60;45.30
65231;DHT22;51813;40.666;16.602;2023-07-09T11:36:13;25.60;46.10
65231;DHT22;51813;40.666;16.602;2023-07-09T11:38:47;25.60;47.90
65231;DHT22;51813;40.666;16.602;2023-07-09T11:44:12;25.60;46.40
65231;DHT22;51813;40.666;16.602;2023-07-09T11:49:13;25.60;45.90
65231;DHT22;51813;40.666;16.602;2023-07-09T11:51:44;25.60;45.40
65231;DHT22;51813;40.666;16.602;2023-07-09T11:54:14;25.60;46.40
65231;DHT22;51813;40.666;16.602;2023-07-09T11:56:39;25.60;46.80
65231;DHT22;51813;40.666;16.602;2023-07-09T11:59:06;25.60;46.20
65231;DHT22;51813;40.666;16.602;2023-07-09T12:01:44;25.60;46.20
65231;DHT22;51813;40.666;16.602;2023-07-09T12:04:16;25.60;46.40
65231;DHT22;51813;40.666;16.602;2023-07-09T12:06:42;25.60;46.60
65231;DHT22;51813;40.666;16.602;2023-07-09T12:09:16;25.60;46.10
65231;DHT22;51813;40.666;16.602;2023-07-09T12:11:44;25.60;47.10
65231;DHT22;51813;40.666;16.602;2023-07-09T12:14:17;25.60;45.80
65231;DHT22;51813;40.666;16.602;2023-07-09T12:16:52;25.60;46.70
65231;DHT22;51813;40.666;16.602;2023-07-09T12:19:24;25.60;47.20
65231;DHT22;51813;40.666;16.602;2023-07-09T12:21:53;25.60;46.90
65231;DHT22;51813;40.666;16.602;2023-07-09T12:24:24;25.60;46.90
65231;DHT22;51813;40.666;16.602;2023-07-09T12:26:55;25.60;45.80
65231;DHT22;51813;40.666;16.602;2023-07-09T12:29:28;25.60;46.90
65231;DHT22;51813;40.666;16.602;2023-07-09T12:31:58;25.60;47.40
65231;DHT22;51813;40.666;16.602;2023-07-09T12:34:25;25.60;46.50
65231;DHT22;51813;40.666;16.602;2023-07-09T12:36:53;25.60;47.50
65231;DHT22;51813;40.666;16.602;2023-07-09T12:39:27;25.60;47.00
65231;DHT22;51813;40.666;16.602;2023-07-09T12:41:55;25.60;47.30
65231;DHT22;51813;40.666;16.602;2023-07-09T12:44:23;25.60;47.20
65231;DHT22;51813;40.666;16.602;2023-07-09T12:46:51;25.70;47.20
65231;DHT22;51813;40.666;16.602;2023-07-09T12:49:26;25.70;45.60
65231;DHT22;51813;40.666;16.602;2023-07-09T12:52:00;25.70;46.10
65231;DHT22;51813;40.666;16.602;2023-07-09T12:54:28;25.70;45.60
65231;DHT22;51813;40.666;16.602;2023-07-09T12:56:55;25.70;45.60
65231;DHT22;51813;40.666;16.602;2023-07-09T12:59:25;25.70;45.90
65231;DHT22;51813;40.666;16.602;2023-07-09T13:04:21;25.70;46.60
65231;DHT22;51813;40.666;16.602;2023-07-09T13:06:47;25.70;47.00
65231;DHT22;51813;40.666;16.602;2023-07-09T13:09:20;25.70;46.90
65231;DHT22;51813;40.666;16.602;2023-07-09T13:11:47;25.70;45.80
65231;DHT22;51813;40.666;16.602;2023-07-09T13:14:29;25.70;46.60
65231;DHT22;51813;40.666;16.602;2023-07-09T13:17:06;25.70;46.70
65231;DHT22;51813;40.666;16.602;2023-07-09T13:19:32;25.80;47.30
65231;DHT22;51813;40.666;16.602;2023-07-09T13:21:58;25.80;46.30
65231;DHT22;51813;40.666;16.602;2023-07-09T13:24:27;25.70;46.40
65231;DHT22;51813;40.666;16.602;2023-07-09T13:26:53;25.70;46.20
65231;DHT22;51813;40.666;16.602;2023-07-09T13:29:20;25.70;46.70
65231;DHT22;51813;40.666;16.602;2023-07-09T13:31:47;25.80;47.30
65231;DHT22;51813;40.666;16.602;2023-07-09T13:34:24;25.80;47.20
65231;DHT22;51813;40.666;16.602;2023-07-09T13:36:51;25.80;46.90
65231;DHT22;51813;40.666;16.602;2023-07-09T13:39:20;25.80;46.60
65231;DHT22;51813;40.666;16.602;2023-07-09T13:41:47;25.80;47.30
65231;DHT22;51813;40.666;16.602;2023-07-09T13:44:40;25.80;46.50
65231;DHT22;51813;40.666;16.602;2023-07-09T13:47:15;25.80;47.10
65231;DHT22;51813;40.666;16.602;2023-07-09T13:49:42;25.80;46.80
65231;DHT22;51813;40.666;16.602;2023-07-09T13:52:15;25.80;47.30
65231;DHT22;51813;40.666;16.602;2023-07-09T13:54:41;25.80;46.60
65231;DHT22;51813;40.666;16.602;2023-07-09T13:57:12;25.90;47.10
65231;DHT22;51813;40.666;16.602;2023-07-09T13:59:38;25.90;46.20
65231;DHT22;51813;40.666;16.602;2023-07-09T14:02:21;25.90;46.20
65231;DHT22;51813;40.666;16.602;2023-07-09T14:04:49;25.90;46.90
65231;DHT22;51813;40.666;16.602;2023-07-09T14:07:35;25.90;47.00
65231;DHT22;51813;40.666;16.602;2023-07-09T14:10:03;25.90;45.60
65231;DHT22;51813;40.666;16.602;2023-07-09T14:12:30;25.90;45.90
65231;DHT22;51813;40.666;16.602;2023-07-09T14:14:58;25.90;46.10
65231;DHT22;51813;40.666;16.602;2023-07-09T14:17:25;26.00;45.50
65231;DHT22;51813;40.666;16.602;2023-07-09T14:19:52;26.00;46.10
65231;DHT22;51813;40.666;16.602;2023-07-09T14:22:32;26.00;46.20
65231;DHT22;51813;40.666;16.602;2023-07-09T14:24:59;26.00;46.40
65231;DHT22;51813;40.666;16.602;2023-07-09T14:27:25;26.00;45.70
65231;DHT22;51813;40.666;16.602;2023-07-09T14:29:50;26.00;46.90
65231;DHT22;51813;40.666;16.602;2023-07-09T14:32:32;26.00;47.00
65231;DHT22;51813;40.666;16.602;2023-07-09T14:34:59;26.00;46.20
65231;DHT22;51813;40.666;16.602;2023-07-09T14:37:25;26.00;45.90
65231;DHT22;51813;40.666;16.602;2023-07-09T14:39:52;26.00;46.90
65231;DHT22;51813;40.666;16.602;2023-07-09T14:42:17;26.00;47.00
65231;DHT22;51813;40.666;16.602;2023-07-09T14:44:43;26.00;47.20
65231;DHT22;51813;40.666;16.602;2023-07-09T14:47:16;26.00;45.70
65231;DHT22;51813;40.666;16.602;2023-07-09T14:49:43;26.10;46.20
65231;DHT22;51813;40.666;16.602;2023-07-09T14:52:17;26.10;46.20
65231;DHT22;51813;40.666;16.602;2023-07-09T14:54:44;26.10;45.10
65231;DHT22;51813;40.666;16.602;2023-07-09T14:57:25;26.10;45.40
65231;DHT22;51813;40.666;16.602;2023-07-09T14:59:51;26.10;46.30
65231;DHT22;51813;40.666;16.602;2023-07-09T15:02:36;26.20;45.40
65231;DHT22;51813;40.666;16.602;2023-07-09T15:05:17;26.20;45.50
65231;DHT22;51813;40.666;16.602;2023-07-09T15:07:44;26.10;45.30
65231;DHT22;51813;40.666;16.602;2023-07-09T15:10:21;26.10;46.60
65231;DHT22;51813;40.666;16.602;2023-07-09T15:12:48;26.10;46.40
65231;DHT22;51813;40.666;16.602;2023-07-09T15:15:30;26.10;46.70
65231;DHT22;51813;40.666;16.602;2023-07-09T15:17:58;26.10;45.70
65231;DHT22;51813;40.666;16.602;2023-07-09T15:20:27;26.20;47.80
65231;DHT22;51813;40.666;16.602;2023-07-09T15:22:55;26.10;45.40
65231;DHT22;51813;40.666;16.602;2023-07-09T15:25:24;26.10;45.80
65231;DHT22;51813;40.666;16.602;2023-07-09T15:27:51;26.10;46.30
65231;DHT22;51813;40.666;16.602;2023-07-09T15:30:22;26.10;46.50
65231;DHT22;51813;40.666;16.602;2023-07-09T15:32:49;26.10;46.10
65231;DHT22;51813;40.666;16.602;2023-07-09T15:35:16;26.10;47.30
65231;DHT22;51813;40.666;16.602;2023-07-09T15:37:43;26.10;47.60
65231;DHT22;51813;40.666;16.602;2023-07-09T15:40:19;26.10;46.70
65231;DHT22;51813;40.666;16.602;2023-07-09T15:42:46;26.10;47.20
65231;DHT22;51813;40.666;16.602;2023-07-09T15:45:15;26.10;47.60
65231;DHT22;51813;40.666;16.602;2023-07-09T15:47:41;26.10;47.50
65231;DHT22;51813;40.666;16.602;2023-07-09T15:50:21;26.10;47.10
65231;DHT22;51813;40.666;16.602;2023-07-09T15:52:49;26.10;47.40
65231;DHT22;51813;40.666;16.602;2023-07-09T15:55:20;26.20;47.40
65231;DHT22;51813;40.666;16.602;2023-07-09T15:57:48;26.20;47.70
65231;DHT22;51813;40.666;16.602;2023-07-09T16:00:20;26.20;48.20
65231;DHT22;51813;40.666;16.602;2023-07-09T16:02:48;26.20;47.70